createdAt,value
2022-10-21T00:02:20.688Z,96175.97
2022-10-21T00:04:48.224Z,96175.53
2022-10-21T00:07:15.755Z,96178.56
2022-10-21T00:09:43.260Z,96167.44
2022-10-21T00:12:10.808Z,96157.84
2022-10-21T00:14:38.304Z,96149.78
2022-10-21T00:17:05.861Z,96168.94
2022-10-21T00:19:34.843Z,96166.34
2022-10-21T00:22:02.385Z,96178.44
2022-10-21T00:24:29.922Z,96174.47
2022-10-21T00:26:57.567Z,96182.75
2022-10-21T00:29:25.093Z,96175.56
2022-10-21T00:31:54.639Z,96161.25
2022-10-21T00:34:25.859Z,96145.09
2022-10-21T00:36:57.284Z,96135.66
2022-10-21T00:39:24.807Z,96153.41
2022-10-21T00:41:52.339Z,96137.84
2022-10-21T00:44:19.868Z,96153.03
2022-10-21T00:46:53.031Z,96146.22
2022-10-21T00:49:24.328Z,96144.69
2022-10-21T00:51:58.369Z,96132.84
2022-10-21T00:54:27.404Z,96131.59
2022-10-21T00:56:57.071Z,96129.34
2022-10-21T00:59:26.189Z,96126.56
2022-10-21T01:01:54.457Z,96122.41
2022-10-21T01:04:22.239Z,96124.53
2022-10-21T01:06:50.816Z,96122.66
2022-10-21T01:09:20.925Z,96116.75
2022-10-21T01:11:50.124Z,96107.47
2022-10-21T01:14:43.258Z,96114.63
2022-10-21T01:17:40.218Z,96119.22
2022-10-21T01:20:38.293Z,96112.38
2022-10-21T01:23:35.026Z,96115.06
2022-10-21T01:26:26.261Z,96112.78
2022-10-21T01:29:15.253Z,96116.59
2022-10-21T01:31:47.908Z,96104.66
2022-10-21T01:34:22.201Z,96111.84
2022-10-21T01:36:56.092Z,96130.59
2022-10-21T01:39:28.228Z,96158.06
2022-10-21T01:42:03.522Z,96146.59
2022-10-21T01:44:37.943Z,96156.19
2022-10-21T01:47:12.364Z,96161.25
2022-10-21T01:49:43.111Z,96154.56
2022-10-21T01:52:13.433Z,96153.63
2022-10-21T01:54:44.863Z,96164.09
2022-10-21T01:57:16.594Z,96158.81
2022-10-21T01:59:45.471Z,96150.38
2022-10-21T02:02:16.256Z,96135.25
2022-10-21T02:04:46.934Z,96145.13
2022-10-21T02:07:14.663Z,96128.31
2022-10-21T02:09:42.161Z,96125.38
2022-10-21T02:12:11.354Z,96116.84
2022-10-21T02:14:44.943Z,96107.03
2022-10-21T02:17:17.205Z,96115.50
2022-10-21T02:19:46.382Z,96120.56
2022-10-21T02:22:18.174Z,96107.84
2022-10-21T02:24:52.756Z,96114.81
2022-10-21T02:27:21.247Z,96111.50
2022-10-21T02:29:50.665Z,96105.41
2022-10-21T02:32:28.016Z,96102.66
2022-10-21T02:35:09.797Z,96088.88
2022-10-21T02:37:44.375Z,96074.47
2022-10-21T02:40:17.852Z,96081.09
2022-10-21T02:42:48.950Z,96086.34
2022-10-21T02:45:18.794Z,96081.50
2022-10-21T02:47:49.763Z,96074.28
2022-10-21T02:50:17.785Z,96086.66
2022-10-21T02:52:45.311Z,96082.53
2022-10-21T02:55:13.311Z,96090.94
2022-10-21T02:57:41.335Z,96086.25
2022-10-21T03:00:10.262Z,96087.63
2022-10-21T03:02:37.845Z,96076.53
2022-10-21T03:05:07.615Z,96088.53
2022-10-21T03:07:35.132Z,96096.22
2022-10-21T03:10:02.703Z,96098.72
2022-10-21T03:12:30.238Z,96090.66
2022-10-21T03:14:57.846Z,96091.19
2022-10-21T03:17:25.609Z,96083.13
2022-10-21T03:19:53.252Z,96079.84
2022-10-21T03:22:22.133Z,96074.13
2022-10-21T03:24:49.638Z,96071.31
2022-10-21T03:27:17.314Z,96067.38
2022-10-21T03:29:44.831Z,96085.53
2022-10-21T03:32:12.361Z,96083.78
2022-10-21T03:34:39.873Z,96093.38
2022-10-21T03:37:07.378Z,96090.16
2022-10-21T03:39:36.248Z,96098.78
2022-10-21T03:42:03.826Z,96093.91
2022-10-21T03:44:31.360Z,96085.66
2022-10-21T03:46:58.879Z,96091.06
2022-10-21T03:49:26.586Z,96068.28
2022-10-21T03:51:54.112Z,96057.69
2022-10-21T03:54:21.834Z,96059.81
2022-10-21T03:56:50.718Z,96070.66
2022-10-21T03:59:18.433Z,96068.94
2022-10-21T04:01:46.213Z,96058.72
2022-10-21T04:04:13.749Z,96047.03
2022-10-21T04:06:41.315Z,96048.81
2022-10-21T04:09:09.006Z,96036.84
2022-10-21T04:11:36.593Z,96049.78
2022-10-21T04:14:05.624Z,96041.16
2022-10-21T04:16:33.731Z,96032.16
2022-10-21T04:19:01.654Z,96032.25
2022-10-21T04:21:29.222Z,96030.84
2022-10-21T04:23:56.775Z,96032.44
2022-10-21T04:26:24.322Z,96040.91
2022-10-21T04:28:51.876Z,96027.38
2022-10-21T04:31:20.727Z,96027.66
2022-10-21T04:33:48.252Z,96024.38
2022-10-21T04:36:15.878Z,96017.28
2022-10-21T04:38:43.422Z,96024.03
2022-10-21T04:41:10.984Z,96034.56
2022-10-21T04:43:39.364Z,96031.31
2022-10-21T04:46:12.097Z,96026.69
2022-10-21T04:48:41.219Z,96024.41
2022-10-21T04:51:08.736Z,96019.31
2022-10-21T04:53:36.291Z,96011.53
2022-10-21T04:56:03.940Z,96009.44
2022-10-21T04:58:31.521Z,95998.03
2022-10-21T05:00:59.098Z,95997.69
2022-10-21T05:03:26.639Z,95985.78
2022-10-21T05:05:55.492Z,95973.88
2022-10-21T05:08:23.287Z,95967.50
2022-10-21T05:10:50.836Z,95960.38
2022-10-21T05:13:18.343Z,95958.38
2022-10-21T05:15:45.863Z,95956.28
2022-10-21T05:18:13.396Z,95957.66
2022-10-21T05:20:40.905Z,95947.91
2022-10-21T05:23:09.788Z,95942.94
2022-10-21T05:25:38.145Z,95933.31
2022-10-21T05:28:05.794Z,95924.50
2022-10-21T05:30:33.376Z,95939.34
2022-10-21T05:33:00.914Z,95935.22
2022-10-21T05:35:28.414Z,95939.88
2022-10-21T05:37:55.959Z,95946.59
2022-10-21T05:40:24.933Z,95951.78
2022-10-21T05:42:52.436Z,95956.03
2022-10-21T05:45:19.985Z,95961.84
2022-10-21T05:47:47.752Z,95969.84
2022-10-21T05:50:15.281Z,95972.00
2022-10-21T05:52:43.055Z,95973.09
2022-10-21T05:55:11.205Z,95971.66
2022-10-21T05:57:40.571Z,95966.69
2022-10-21T06:00:09.355Z,95958.72
2022-10-21T06:02:37.185Z,95960.28
2022-10-21T06:05:05.435Z,95956.22
2022-10-21T06:07:32.939Z,95958.28
2022-10-21T06:10:00.463Z,95958.09
2022-10-21T06:12:27.990Z,95958.16
2022-10-21T06:14:56.864Z,95970.41
2022-10-21T06:17:24.387Z,95969.88
2022-10-21T06:19:51.904Z,95968.66
2022-10-21T06:22:19.412Z,95971.44
2022-10-21T06:24:47.277Z,95961.13
2022-10-21T06:27:14.989Z,95969.88
2022-10-21T06:29:42.503Z,95964.47
2022-10-21T06:32:12.037Z,95970.78
2022-10-21T06:34:39.629Z,95971.56
2022-10-21T06:37:07.125Z,95975.59
2022-10-21T06:39:34.628Z,95973.75
2022-10-21T06:42:02.095Z,95986.97
2022-10-21T06:44:29.596Z,95983.22
2022-10-21T06:46:57.108Z,95978.41
2022-10-21T06:49:25.965Z,95978.53
2022-10-21T06:51:53.693Z,95981.97
2022-10-21T06:54:21.191Z,95990.63
2022-10-21T06:56:48.717Z,95970.09
2022-10-21T06:59:16.257Z,95975.06
2022-10-21T07:02:00.526Z,95975.53
2022-10-21T07:04:30.598Z,95968.13
2022-10-21T07:06:58.380Z,95978.75
2022-10-21T07:09:25.926Z,95981.84
2022-10-21T07:11:53.499Z,95983.50
2022-10-21T07:14:21.015Z,95975.84
2022-10-21T07:16:49.071Z,95987.88
2022-10-21T07:19:16.601Z,95989.13
2022-10-21T07:21:46.175Z,95990.25
2022-10-21T07:24:16.295Z,95977.34
2022-10-21T07:26:45.134Z,95968.97
2022-10-21T07:29:12.644Z,95964.56
2022-10-21T07:31:40.527Z,95957.72
2022-10-21T07:34:09.434Z,95962.78
2022-10-21T07:36:39.064Z,95951.25
2022-10-21T07:39:11.761Z,95947.94
2022-10-21T07:41:42.163Z,95950.19
2022-10-21T07:44:10.568Z,95935.47
2022-10-21T07:46:38.938Z,95941.84
2022-10-21T07:49:07.045Z,95936.16
2022-10-21T07:51:34.561Z,95921.84
2022-10-21T07:54:02.821Z,95926.03
2022-10-21T07:56:33.760Z,95917.00
2022-10-21T07:59:02.415Z,95923.66
2022-10-21T08:01:30.132Z,95917.44
2022-10-21T08:03:58.856Z,95925.88
2022-10-21T08:06:27.684Z,95922.75
2022-10-21T08:08:57.340Z,95919.03
2022-10-21T08:11:26.179Z,95924.94
2022-10-21T08:13:55.997Z,95925.50
2022-10-21T08:16:24.208Z,95925.22
2022-10-21T08:18:51.984Z,95928.59
2022-10-21T08:21:19.601Z,95924.91
2022-10-21T08:23:47.140Z,95933.53
2022-10-21T08:26:16.532Z,95940.31
2022-10-21T08:28:45.130Z,95940.63
2022-10-21T08:31:15.791Z,95937.44
2022-10-21T08:33:43.811Z,95944.56
2022-10-21T08:36:14.384Z,95939.63
2022-10-21T08:38:42.218Z,95930.38
2022-10-21T08:41:28.673Z,95934.97
2022-10-21T08:43:59.017Z,95931.50
2022-10-21T08:46:32.819Z,95930.22
2022-10-21T08:49:07.062Z,95935.56
2022-10-21T08:51:40.869Z,95939.63
2022-10-21T08:54:18.417Z,95944.47
2022-10-21T08:56:47.955Z,95937.25
2022-10-21T08:59:23.779Z,95926.81
2022-10-21T09:02:00.097Z,95921.97
2022-10-21T09:04:40.553Z,95930.84
2022-10-21T09:07:15.002Z,95925.63
2022-10-21T09:09:49.757Z,95928.16
2022-10-21T09:12:26.015Z,95926.13
2022-10-21T09:15:24.931Z,95913.16
2022-10-21T09:18:19.664Z,95911.28
2022-10-21T09:20:56.600Z,95920.09
2022-10-21T09:23:54.141Z,95919.53
2022-10-21T09:26:33.679Z,95921.44
2022-10-21T09:29:03.563Z,95932.13
2022-10-21T09:31:31.140Z,95939.59
2022-10-21T09:34:04.597Z,95950.47
2022-10-21T09:36:37.577Z,95955.88
2022-10-21T09:39:11.518Z,95965.19
2022-10-21T09:41:43.743Z,95971.94
2022-10-21T09:44:17.023Z,95971.06
2022-10-21T09:46:46.206Z,95983.69
2022-10-21T09:52:12.885Z,95986.56
2022-10-21T09:54:42.736Z,95983.72
2022-10-21T09:57:15.367Z,95980.78
2022-10-21T09:59:53.810Z,95971.56
2022-10-21T10:02:28.805Z,95976.59
2022-10-21T10:04:58.427Z,95983.00
2022-10-21T10:07:34.511Z,95988.78
2022-10-21T10:10:02.666Z,95977.00
2022-10-21T10:12:31.125Z,95973.53
2022-10-21T10:15:25.850Z,95975.78
2022-10-21T10:17:58.054Z,95975.78
2022-10-21T10:20:27.326Z,95985.03
2022-10-21T10:23:20.006Z,95982.53
2022-10-21T10:25:53.073Z,95975.53
2022-10-21T10:28:25.701Z,95982.50
2022-10-21T10:30:56.362Z,95979.44
2022-10-21T10:33:27.580Z,95976.44
2022-10-21T10:35:58.670Z,95977.44
2022-10-21T10:38:30.749Z,95962.97
2022-10-21T10:41:06.200Z,95962.25
2022-10-21T10:43:36.111Z,95958.66
2022-10-21T10:46:07.655Z,95966.47
2022-10-21T10:48:39.489Z,95978.69
2022-10-21T10:51:24.061Z,95986.75
2022-10-21T10:54:02.190Z,95988.50
2022-10-21T10:56:33.453Z,95980.47
2022-10-21T10:59:09.891Z,95974.03
2022-10-21T11:01:44.083Z,95966.91
2022-10-21T11:04:18.333Z,95969.47
2022-10-21T11:06:52.039Z,95961.81
2022-10-21T11:09:23.829Z,95963.66
2022-10-21T11:11:56.281Z,95943.78
2022-10-21T11:14:24.239Z,95943.53
2022-10-21T11:17:01.839Z,95937.75
2022-10-21T11:19:43.822Z,95933.38
2022-10-21T11:22:27.107Z,95928.69
2022-10-21T11:25:05.663Z,95926.41
2022-10-21T11:27:48.830Z,95917.75
2022-10-21T11:30:19.768Z,95912.41
2022-10-21T11:33:04.427Z,95926.91
2022-10-21T11:35:42.254Z,95934.84
2022-10-21T11:38:32.827Z,95919.69
2022-10-21T11:41:09.102Z,95905.47
2022-10-21T11:43:49.043Z,95909.78
2022-10-21T11:46:23.415Z,95912.28
2022-10-21T11:49:02.392Z,95900.63
2022-10-21T11:51:42.800Z,95900.53
2022-10-21T11:55:08.903Z,95908.78
2022-10-21T11:57:43.992Z,95907.97
2022-10-21T12:00:15.035Z,95914.50
2022-10-21T12:02:44.765Z,95907.50
2022-10-21T12:05:22.538Z,95894.34
2022-10-21T12:08:12.985Z,95897.16
2022-10-21T12:10:48.260Z,95915.28
2022-10-21T12:13:21.276Z,95915.50
2022-10-21T12:15:52.807Z,95916.38
2022-10-21T12:18:23.760Z,95920.34
2022-10-21T12:20:54.100Z,95929.66
2022-10-21T12:23:24.485Z,95914.63
2022-10-21T12:26:10.027Z,95939.16
2022-10-21T12:28:43.232Z,95937.09
2022-10-21T12:31:27.523Z,95931.50
2022-10-21T12:33:55.859Z,95934.22
2022-10-21T12:36:40.003Z,95936.63
2022-10-21T12:39:12.628Z,95940.25
2022-10-21T12:41:41.940Z,95950.13
2022-10-21T12:44:30.293Z,95936.88
2022-10-21T12:47:02.677Z,95936.53
2022-10-21T12:49:33.474Z,95932.72
2022-10-21T12:52:09.396Z,95924.56
2022-10-21T12:54:43.920Z,95928.56
2022-10-21T12:57:24.972Z,95922.31
2022-10-21T12:59:52.992Z,95920.16
2022-10-21T13:02:29.443Z,95920.31
2022-10-21T13:04:59.243Z,95913.34
2022-10-21T13:07:36.381Z,95930.09
2022-10-21T13:10:35.294Z,95920.22
2022-10-21T13:13:30.712Z,95915.41
2022-10-21T13:15:58.979Z,95905.66
2022-10-21T13:18:55.413Z,95916.69
2022-10-21T13:21:38.218Z,95906.84
2022-10-21T13:24:20.866Z,95919.72
2022-10-21T13:26:51.043Z,95914.44
2022-10-21T13:29:42.131Z,95911.50
2022-10-21T13:32:31.948Z,95909.56
2022-10-21T13:35:31.236Z,95913.25
2022-10-21T13:38:03.437Z,95917.94
2022-10-21T13:40:37.458Z,95929.16
2022-10-21T13:43:08.927Z,95927.53
2022-10-21T13:45:44.052Z,95932.72
2022-10-21T13:48:16.056Z,95927.59
2022-10-21T13:50:45.410Z,95924.38
2022-10-21T13:53:24.521Z,95930.47
2022-10-21T13:55:59.931Z,95947.09
2022-10-21T13:58:29.689Z,95929.25
2022-10-21T14:00:59.234Z,95946.16
2022-10-21T14:03:27.935Z,95933.38
2022-10-21T14:05:58.976Z,95931.25
2022-10-21T14:08:29.671Z,95934.34
2022-10-21T14:10:59.875Z,95929.00
2022-10-21T14:13:32.307Z,95923.28
2022-10-21T14:16:01.891Z,95935.66
2022-10-21T14:18:35.022Z,95933.13
2022-10-21T14:21:05.940Z,95947.66
2022-10-21T14:23:35.362Z,95949.59
2022-10-21T14:26:07.098Z,95942.84
2022-10-21T14:28:35.972Z,95948.47
2022-10-21T14:33:43.241Z,95934.69
2022-10-21T14:36:15.284Z,95944.63
2022-10-21T14:38:51.512Z,95940.91
2022-10-21T14:41:22.229Z,95935.06
2022-10-21T14:43:52.891Z,95939.03
2022-10-21T14:46:22.282Z,95942.66
2022-10-21T14:48:53.524Z,95943.50
2022-10-21T14:51:23.315Z,95943.72
2022-10-21T14:53:56.007Z,95942.41
2022-10-21T14:56:29.612Z,95947.84
2022-10-21T14:58:59.161Z,95947.66
2022-10-21T15:01:28.464Z,95940.41
2022-10-21T15:04:00.260Z,95932.19
2022-10-21T15:06:29.989Z,95932.19
2022-10-21T15:09:06.205Z,95933.88
2022-10-21T15:11:41.548Z,95949.13
2022-10-21T15:14:32.966Z,95940.91
2022-10-21T15:17:04.401Z,95930.59
2022-10-21T15:19:44.018Z,95939.47
2022-10-21T15:22:24.662Z,95934.78
2022-10-21T15:24:53.619Z,95929.75
2022-10-21T15:27:27.310Z,95942.97
2022-10-21T15:29:54.980Z,95950.41
2022-10-21T15:32:26.983Z,95953.50
2022-10-21T15:34:57.205Z,95950.34
2022-10-21T15:37:24.841Z,95951.63
2022-10-21T15:39:52.346Z,95938.75
2022-10-21T15:42:20.092Z,95950.03
2022-10-21T15:44:50.053Z,95943.94
2022-10-21T15:47:17.616Z,95936.69
2022-10-21T15:49:47.268Z,95944.13
2022-10-21T15:52:15.101Z,95943.88
2022-10-21T15:54:42.797Z,95945.19
2022-10-21T15:57:18.120Z,95948.34
2022-10-21T15:59:46.254Z,95958.25
2022-10-21T16:02:17.054Z,95957.44
2022-10-21T16:04:46.665Z,95956.81
2022-10-21T16:07:21.522Z,95955.19
2022-10-21T16:09:49.202Z,95947.97
2022-10-21T16:12:19.852Z,95942.81
2022-10-21T16:14:47.433Z,95956.81
2022-10-21T16:17:15.341Z,95944.28
2022-10-21T16:19:43.034Z,95957.81
2022-10-21T16:22:17.274Z,95954.97
2022-10-21T16:24:44.800Z,95946.91
2022-10-21T16:27:13.129Z,95933.50
2022-10-21T16:29:40.993Z,95933.06
2022-10-21T16:32:11.669Z,95934.47
2022-10-21T16:34:39.232Z,95942.97
2022-10-21T16:37:20.550Z,95944.63
2022-10-21T16:39:48.054Z,95952.50
2022-10-21T16:42:15.566Z,95966.94
2022-10-21T16:44:44.694Z,95961.16
2022-10-21T16:47:17.746Z,95964.66
2022-10-21T16:49:46.052Z,95973.84
2022-10-21T16:52:13.960Z,95975.53
2022-10-21T16:54:46.447Z,95959.88
2022-10-21T16:57:15.978Z,95968.13
2022-10-21T16:59:43.462Z,95967.22
2022-10-21T17:02:16.137Z,95970.78
2022-10-21T17:04:43.831Z,95973.31
2022-10-21T17:07:11.488Z,95985.06
2022-10-21T17:09:39.001Z,95986.31
2022-10-21T17:12:08.203Z,95983.19
2022-10-21T17:17:08.170Z,95991.63
2022-10-21T17:19:35.729Z,95985.25
2022-10-21T17:22:03.316Z,95984.09
2022-10-21T17:24:30.836Z,95987.78
2022-10-21T17:26:58.372Z,95988.97
2022-10-21T17:29:27.371Z,95987.66
2022-10-21T17:31:54.925Z,95986.00
2022-10-21T17:34:28.449Z,95989.91
2022-10-21T17:36:56.221Z,95979.81
2022-10-21T17:39:24.093Z,95994.59
2022-10-21T17:41:51.746Z,95991.19
2022-10-21T17:44:19.626Z,96004.38
2022-10-21T17:46:49.443Z,95998.03
2022-10-21T17:49:17.018Z,95992.22
2022-10-21T17:51:44.662Z,95995.22
2022-10-21T17:54:12.189Z,95992.94
2022-10-21T17:56:41.554Z,95989.69
2022-10-21T17:59:09.412Z,95990.56
2022-10-21T18:01:36.961Z,96006.84
2022-10-21T18:04:06.256Z,96002.41
2022-10-21T18:06:34.055Z,96010.75
2022-10-21T18:09:03.181Z,96006.84
2022-10-21T18:11:30.813Z,96001.31
2022-10-21T18:13:58.337Z,95992.41
2022-10-21T18:16:25.962Z,96005.16
2022-10-21T18:18:57.234Z,95999.00
2022-10-21T18:21:28.992Z,95994.75
2022-10-21T18:23:56.516Z,96000.44
2022-10-21T18:26:26.483Z,95985.19
2022-10-21T18:28:57.127Z,95982.41
2022-10-21T18:31:26.152Z,95978.69
2022-10-21T18:33:56.111Z,95971.78
2022-10-21T18:36:24.518Z,95974.81
2022-10-21T18:38:53.525Z,95982.75
2022-10-21T18:41:22.012Z,95968.50
2022-10-21T18:43:51.308Z,95978.13
2022-10-21T18:46:19.051Z,95975.56
2022-10-21T18:48:46.940Z,95980.75
2022-10-21T18:51:16.444Z,95977.69
2022-10-21T18:53:48.437Z,95979.31
2022-10-21T18:56:21.987Z,95977.41
2022-10-21T18:58:49.850Z,95964.09
2022-10-21T19:01:18.951Z,95963.88
2022-10-21T19:03:46.709Z,95966.59
2022-10-21T19:06:19.474Z,95969.66
2022-10-21T19:08:47.801Z,95963.63
2022-10-21T19:11:15.431Z,95962.50
2022-10-21T19:13:44.289Z,95968.59
2022-10-21T19:16:11.857Z,95972.88
2022-10-21T19:18:39.470Z,95960.41
2022-10-21T19:21:07.602Z,95957.22
2022-10-21T19:23:35.451Z,95952.25
2022-10-21T19:26:04.024Z,95945.84
2022-10-21T19:28:32.728Z,95933.97
2022-10-21T19:31:02.064Z,95946.25
2022-10-21T19:33:30.889Z,95944.19
2022-10-21T19:36:00.554Z,95953.38
2022-10-21T19:38:43.163Z,95956.72
2022-10-21T19:41:13.393Z,95959.41
2022-10-21T19:43:41.054Z,95958.03
2022-10-21T19:46:11.717Z,95943.03
2022-10-21T19:48:39.284Z,95953.59
2022-10-21T19:51:08.740Z,95966.38
2022-10-21T19:53:38.147Z,95963.94
2022-10-21T19:56:07.329Z,95960.59
2022-10-21T19:58:35.340Z,95967.25
2022-10-21T20:01:03.110Z,95976.94
2022-10-21T20:03:32.447Z,95989.66
2022-10-21T20:05:59.966Z,95982.44
2022-10-21T20:08:27.715Z,95982.16
2022-10-21T20:11:02.617Z,95999.69
2022-10-21T20:13:30.578Z,96000.34
2022-10-21T20:15:58.904Z,96006.56
2022-10-21T20:18:27.687Z,96005.81
2022-10-21T20:20:56.871Z,96012.06
2022-10-21T20:23:24.624Z,96009.47
2022-10-21T20:25:55.206Z,96014.69
2022-10-21T20:28:23.399Z,96014.09
2022-10-21T20:30:57.869Z,96012.81
2022-10-21T20:33:25.813Z,96003.56
2022-10-21T20:35:53.637Z,96009.22
2022-10-21T20:38:22.957Z,96011.72
2022-10-21T20:40:54.612Z,96012.53
2022-10-21T20:43:22.207Z,96018.91
2022-10-21T20:45:49.739Z,96004.34
2022-10-21T20:48:17.265Z,96004.84
2022-10-21T20:50:44.857Z,95995.66
2022-10-21T20:53:12.382Z,96004.16
2022-10-21T20:55:42.756Z,96008.72
2022-10-21T20:58:10.251Z,95995.03
2022-10-21T21:00:38.027Z,95988.16
2022-10-21T21:03:05.560Z,95986.06
2022-10-21T21:05:38.121Z,95997.78
2022-10-21T21:08:06.878Z,95995.31
2022-10-21T21:10:34.460Z,96000.22
2022-10-21T21:13:03.414Z,95998.88
2022-10-21T21:15:30.987Z,95992.47
2022-10-21T21:18:01.308Z,95995.50
2022-10-21T21:20:28.984Z,95987.50
2022-10-21T21:22:56.740Z,95987.34
2022-10-21T21:25:24.233Z,95974.59
2022-10-21T21:27:51.742Z,95971.84
2022-10-21T21:30:20.732Z,95970.91
2022-10-21T21:32:48.227Z,95979.88
2022-10-21T21:35:15.964Z,95972.97
2022-10-21T21:37:43.511Z,95977.47
2022-10-21T21:40:12.286Z,95966.47
2022-10-21T21:42:40.190Z,95972.50
2022-10-21T21:45:08.916Z,95971.63
2022-10-21T21:47:37.813Z,95970.63
2022-10-21T21:50:05.862Z,95971.41
2022-10-21T21:52:33.441Z,95974.16
2022-10-21T21:55:00.935Z,95968.75
2022-10-21T21:57:28.790Z,95966.91
2022-10-21T21:59:56.403Z,95959.31
2022-10-21T22:02:23.920Z,95960.09
2022-10-21T22:04:52.852Z,95946.03
2022-10-21T22:07:20.586Z,95944.66
2022-10-21T22:09:49.175Z,95944.28
2022-10-21T22:12:17.834Z,95933.56
2022-10-21T22:14:46.321Z,95934.56
2022-10-21T22:17:14.062Z,95938.56
2022-10-21T22:19:41.588Z,95940.44
2022-10-21T22:22:10.498Z,95946.38
2022-10-21T22:24:38.450Z,95954.88
2022-10-21T22:27:06.135Z,95952.09
2022-10-21T22:29:33.697Z,95958.06
2022-10-21T22:32:01.441Z,95966.22
2022-10-21T22:34:28.992Z,95963.19
2022-10-21T22:36:56.557Z,95960.81
2022-10-21T22:39:25.622Z,95962.91
2022-10-21T22:41:53.140Z,95961.56
2022-10-21T22:44:22.032Z,95966.13
2022-10-21T22:46:49.708Z,95970.81
2022-10-21T22:49:17.810Z,95973.00
2022-10-21T22:51:45.416Z,95987.72
2022-10-21T22:54:29.680Z,95978.25
2022-10-21T22:57:01.911Z,95974.75
2022-10-21T22:59:29.409Z,95987.66
2022-10-21T23:01:56.917Z,95985.56
2022-10-21T23:04:24.420Z,95985.72
2022-10-21T23:06:51.951Z,95988.84
2022-10-21T23:09:19.542Z,95983.13
2022-10-21T23:11:47.418Z,95973.00
2022-10-21T23:14:16.353Z,95971.72
2022-10-21T23:16:44.121Z,95981.09
2022-10-21T23:21:44.173Z,95977.75
2022-10-21T23:24:12.035Z,95979.50
2022-10-21T23:26:39.621Z,95981.34
2022-10-21T23:29:07.155Z,95974.91
2022-10-21T23:31:36.043Z,95974.97
2022-10-21T23:34:05.760Z,95980.59
2022-10-21T23:36:34.453Z,95978.47
2022-10-21T23:39:02.328Z,95975.28
2022-10-21T23:41:30.147Z,95975.97
2022-10-21T23:43:57.694Z,95967.13
2022-10-21T23:46:25.242Z,95965.84
2022-10-21T23:48:54.126Z,95972.19
2022-10-21T23:51:22.070Z,95977.06
2022-10-21T23:53:49.592Z,95965.50
2022-10-21T23:56:17.160Z,95982.41
2022-10-21T23:58:44.695Z,95979.50
